createdAt,value
2023-02-01T00:00:21.810Z,80.73
2023-02-01T00:02:50.337Z,80.68
2023-02-01T00:05:18.958Z,80.72
2023-02-01T00:07:49.378Z,80.79
2023-02-01T00:10:18.336Z,80.58
2023-02-01T00:12:48.705Z,80.70
2023-02-01T00:15:17.393Z,80.49
2023-02-01T00:17:46.492Z,80.47
2023-02-01T00:20:14.881Z,80.06
2023-02-01T00:22:43.561Z,80.11
2023-02-01T00:25:12.146Z,80.04
2023-02-01T00:27:40.632Z,80.06
2023-02-01T00:30:10.167Z,80.14
2023-02-01T00:32:38.924Z,80.17
2023-02-01T00:35:09.409Z,79.92
2023-02-01T00:37:39.687Z,79.85
2023-02-01T00:40:09.257Z,79.60
2023-02-01T00:42:38.181Z,79.51
2023-02-01T00:45:07.938Z,79.79
2023-02-01T00:47:36.274Z,80.06
2023-02-01T00:50:05.550Z,80.38
2023-02-01T00:52:34.163Z,80.43
2023-02-01T00:55:02.856Z,80.69
2023-02-01T00:57:31.846Z,81.05
2023-02-01T01:00:00.236Z,81.39
2023-02-01T01:02:29.219Z,81.71
2023-02-01T01:04:59.037Z,81.87
2023-02-01T01:07:28.953Z,81.86
2023-02-01T01:09:57.638Z,81.90
2023-02-01T01:12:26.224Z,82.06
2023-02-01T01:14:54.808Z,82.29
2023-02-01T01:17:23.213Z,82.44
2023-02-01T01:19:51.676Z,82.42
2023-02-01T01:22:20.058Z,82.38
2023-02-01T01:24:48.441Z,82.28
2023-02-01T01:27:24.086Z,82.53
2023-02-01T01:29:53.418Z,82.62
2023-02-01T01:32:21.874Z,82.78
2023-02-01T01:34:50.248Z,82.74
2023-02-01T01:37:18.730Z,82.66
2023-02-01T01:39:47.211Z,82.63
2023-02-01T01:42:15.694Z,82.43
2023-02-01T05:51:39.782Z,84.96
2023-02-01T05:54:09.697Z,82.99
2023-02-01T05:56:38.077Z,82.92
2023-02-01T05:59:06.559Z,82.35
2023-02-01T06:01:35.554Z,81.72
2023-02-01T06:04:04.178Z,81.41
2023-02-01T06:06:32.828Z,80.93
2023-02-01T06:09:02.131Z,80.45
2023-02-01T06:11:32.757Z,80.20
2023-02-01T06:14:01.816Z,79.94
2023-02-01T06:16:30.369Z,79.67
2023-02-01T06:18:59.478Z,79.59
2023-02-01T06:21:27.835Z,79.30
2023-02-01T06:23:58.861Z,79.31
2023-02-01T06:26:29.870Z,79.13
2023-02-01T06:28:58.403Z,79.20
2023-02-01T06:31:27.053Z,79.50
2023-02-01T06:33:55.865Z,79.40
2023-02-01T06:36:26.499Z,79.28
2023-02-01T06:38:57.763Z,79.27
2023-02-01T06:41:29.255Z,79.11
2023-02-01T06:43:58.205Z,79.14
2023-02-01T06:46:26.848Z,79.21
2023-02-01T06:48:55.570Z,79.31
2023-02-01T06:51:26.110Z,79.38
2023-02-01T06:53:55.028Z,79.02
2023-02-01T06:56:23.792Z,79.14
2023-02-01T06:58:52.468Z,79.03
2023-02-01T07:01:21.255Z,78.97
2023-02-01T07:03:52.121Z,78.66
2023-02-01T07:06:20.582Z,78.35
2023-02-01T07:08:52.033Z,78.06
2023-02-01T07:11:20.415Z,77.68
2023-02-01T07:13:49.222Z,77.64
2023-02-01T07:16:19.422Z,77.65
2023-02-01T07:18:48.110Z,77.79
2023-02-01T07:21:16.902Z,77.81
2023-02-01T07:23:45.290Z,77.74
2023-02-01T07:26:15.254Z,77.67
2023-02-01T07:28:43.995Z,77.19
2023-02-01T07:31:16.468Z,77.18
2023-02-01T07:33:44.953Z,77.08
2023-02-01T07:36:15.046Z,77.04
2023-02-01T07:38:43.557Z,77.20
2023-02-01T07:41:12.453Z,77.25
2023-02-01T07:43:41.141Z,76.86
2023-02-01T07:46:10.577Z,76.59
2023-02-01T07:48:40.057Z,76.37
2023-02-01T07:51:15.808Z,76.30
2023-02-01T07:53:44.492Z,76.30
2023-02-01T07:56:14.316Z,75.84
2023-02-01T07:58:42.799Z,75.65
2023-02-01T08:01:21.682Z,75.66
2023-02-01T08:03:54.903Z,75.74
2023-02-01T08:06:23.911Z,75.23
2023-02-01T08:08:54.242Z,75.12
2023-02-01T08:11:23.247Z,74.87
2023-02-01T08:13:51.920Z,73.59
2023-02-01T08:16:20.933Z,73.76
2023-02-01T08:18:49.298Z,73.63
2023-02-01T08:21:23.542Z,73.80
2023-02-01T08:23:52.003Z,73.44
2023-02-01T08:26:25.419Z,73.24
2023-02-01T08:28:56.339Z,73.29
2023-02-01T08:31:26.110Z,72.77
2023-02-01T08:33:55.916Z,72.39
2023-02-01T08:36:24.816Z,72.37
2023-02-01T08:38:53.345Z,71.96
2023-02-01T08:41:24.174Z,71.47
2023-02-01T08:43:52.964Z,71.76
2023-02-01T08:46:21.805Z,71.30
2023-02-01T08:48:50.644Z,71.20
2023-02-01T08:51:20.066Z,70.72
2023-02-01T08:53:48.434Z,70.60
2023-02-01T08:56:17.437Z,70.55
2023-02-01T08:58:46.113Z,70.56
2023-02-01T09:01:16.421Z,70.58
2023-02-01T09:03:45.006Z,70.93
2023-02-01T09:06:14.846Z,71.46
2023-02-01T09:08:48.239Z,71.67
2023-02-01T09:11:18.404Z,72.32
2023-02-01T09:13:47.667Z,72.85
2023-02-01T09:16:17.025Z,73.76
2023-02-01T09:18:55.852Z,73.96
2023-02-01T09:21:30.768Z,74.46
2023-02-01T09:23:59.322Z,74.87
2023-02-01T09:26:32.625Z,75.24
2023-02-01T09:29:01.640Z,75.57
2023-02-01T09:31:31.671Z,75.83
2023-02-01T14:09:37.925Z,92.78
2023-02-01T14:12:45.609Z,90.76
2023-02-01T14:15:22.728Z,90.75
2023-02-01T14:17:51.915Z,90.50
2023-02-01T14:20:51.618Z,89.79
2023-02-01T14:23:22.449Z,89.55
2023-02-01T14:26:03.729Z,89.30
2023-02-01T14:28:33.540Z,88.90
2023-02-01T14:31:02.014Z,88.63
2023-02-01T14:33:30.920Z,87.99
2023-02-01T14:36:10.976Z,87.69
2023-02-01T14:38:39.460Z,87.76
2023-02-01T14:41:35.688Z,87.64
2023-02-01T14:44:03.964Z,87.34
2023-02-01T14:47:03.615Z,87.21
2023-02-01T14:49:41.420Z,87.06
2023-02-01T14:52:14.777Z,87.03
2023-02-01T14:54:43.166Z,87.00
2023-02-01T14:57:18.098Z,86.66
2023-02-01T14:59:46.689Z,86.01
2023-02-01T15:02:22.214Z,85.98
2023-02-01T15:04:55.717Z,86.01
2023-02-01T15:07:28.215Z,85.85
2023-02-01T15:09:58.329Z,85.87
2023-02-01T15:12:31.740Z,85.64
2023-02-01T15:15:21.856Z,85.81
2023-02-01T15:17:58.342Z,85.63
2023-02-01T15:20:31.677Z,85.82
2023-02-01T15:23:04.251Z,85.72
2023-02-01T15:25:38.077Z,85.48
2023-02-01T15:28:09.617Z,85.65
2023-02-01T15:30:38.074Z,86.01
2023-02-01T15:33:08.222Z,85.94
2023-02-01T15:35:43.680Z,86.10
2023-02-01T15:38:28.548Z,85.96
2023-02-01T15:41:03.060Z,86.09
2023-02-01T15:43:58.789Z,86.09
2023-02-01T15:46:33.472Z,86.00
2023-02-01T15:49:04.048Z,86.04
2023-02-01T15:51:36.011Z,85.98
2023-02-01T15:54:11.374Z,85.96
2023-02-01T15:56:42.429Z,85.97
2023-02-01T15:59:18.076Z,86.03
2023-02-01T16:01:46.768Z,85.83
2023-02-01T16:04:26.081Z,85.73
2023-02-01T16:07:01.681Z,85.54
2023-02-01T16:09:41.592Z,85.84
2023-02-01T16:12:39.567Z,85.83
2023-02-01T16:15:09.489Z,85.74
2023-02-01T16:17:37.957Z,85.82
2023-02-01T16:20:07.200Z,85.89
2023-02-01T16:22:35.539Z,86.11
2023-02-01T16:25:04.536Z,86.29
2023-02-01T16:27:34.146Z,86.12
2023-02-01T16:30:02.525Z,86.20
2023-02-01T16:32:31.325Z,86.43
2023-02-01T16:35:00.114Z,86.57
2023-02-01T16:37:30.429Z,86.38
2023-02-01T16:39:58.813Z,86.08
2023-02-01T16:42:27.771Z,86.20
2023-02-01T16:44:56.193Z,86.22
2023-02-01T16:47:24.981Z,86.17
2023-02-01T16:49:56.840Z,86.16
2023-02-01T16:52:26.268Z,85.71
2023-02-01T16:54:54.837Z,85.61
2023-02-01T16:57:25.060Z,85.64
2023-02-01T16:59:53.950Z,85.84
2023-02-01T17:02:23.148Z,85.64
2023-02-01T17:04:51.586Z,85.41
2023-02-01T17:07:20.122Z,85.47
2023-02-01T17:09:48.711Z,85.37
2023-02-01T17:12:26.017Z,85.41
2023-02-01T17:14:54.477Z,85.30
2023-02-01T17:17:29.045Z,85.12
2023-02-01T17:20:07.510Z,85.03
2023-02-01T17:22:35.901Z,85.17
2023-02-01T17:25:07.141Z,84.91
2023-02-01T17:27:39.107Z,84.97
2023-02-01T17:30:10.436Z,84.93
2023-02-01T17:32:39.859Z,84.85
2023-02-01T17:35:20.894Z,84.86
2023-02-01T17:37:49.836Z,84.65
2023-02-01T17:40:18.824Z,84.46
2023-02-01T17:42:47.420Z,84.31
2023-02-01T17:45:36.980Z,84.04
2023-02-01T17:48:06.753Z,84.03
2023-02-01T20:12:19.003Z,87.49
2023-02-01T20:14:47.272Z,84.83
2023-02-01T20:17:18.043Z,84.50
2023-02-01T20:19:46.289Z,84.43
2023-02-01T20:22:14.793Z,84.40
2023-02-01T20:24:43.157Z,84.50
2023-02-01T20:27:13.420Z,84.34
2023-02-01T20:29:41.806Z,84.09
2023-02-01T20:32:10.594Z,83.61
2023-02-01T20:34:39.182Z,83.70
2023-02-01T20:37:07.564Z,83.70
2023-02-01T20:39:36.083Z,83.63
2023-02-01T20:42:04.532Z,83.83
2023-02-01T20:44:33.220Z,84.05
2023-02-01T20:47:03.344Z,83.88
2023-02-01T20:49:34.910Z,83.89
2023-02-01T20:52:03.285Z,83.99
2023-02-01T20:54:32.687Z,84.03
2023-02-01T20:57:01.076Z,84.07
2023-02-01T20:59:29.653Z,84.08
2023-02-01T21:01:58.147Z,84.21
2023-02-01T21:04:30.410Z,84.23
2023-02-01T21:07:02.995Z,84.07
2023-02-01T21:09:32.004Z,84.07
2023-02-01T21:12:00.475Z,83.83
2023-02-01T21:14:30.188Z,83.89
2023-02-01T21:16:58.581Z,84.09
2023-02-01T21:19:27.356Z,83.97
2023-02-01T21:21:56.046Z,83.78
2023-02-01T21:24:24.631Z,83.85
2023-02-01T21:26:53.036Z,84.15
2023-02-01T21:29:21.686Z,84.07
2023-02-01T21:31:50.419Z,84.38
2023-02-01T21:34:19.078Z,84.05
2023-02-01T21:36:48.275Z,84.23
2023-02-01T21:39:17.986Z,84.18
2023-02-01T21:42:04.912Z,84.26
2023-02-01T21:44:33.591Z,84.31
2023-02-01T21:47:02.486Z,84.34
2023-02-01T21:49:30.965Z,84.38
2023-02-01T21:52:00.780Z,84.49
2023-02-01T21:54:29.570Z,84.21
2023-02-01T21:56:57.972Z,84.23
2023-02-01T21:59:26.639Z,84.21
2023-02-01T22:01:55.020Z,84.28
2023-02-01T22:04:23.709Z,84.03
2023-02-01T22:06:52.091Z,83.98
2023-02-01T22:09:22.589Z,83.84
2023-02-01T22:11:51.632Z,84.06
2023-02-01T22:14:20.326Z,84.01
2023-02-01T22:16:49.134Z,84.13
2023-02-01T22:19:18.555Z,84.12
2023-02-01T22:21:48.207Z,84.10
2023-02-01T22:24:18.364Z,83.88
2023-02-01T22:26:47.430Z,83.98
2023-02-01T22:29:17.444Z,84.13
2023-02-01T22:31:46.137Z,84.09
2023-02-01T22:34:15.857Z,84.24
2023-02-01T22:36:44.438Z,84.17
2023-02-01T22:39:12.815Z,84.32
2023-02-01T22:41:41.398Z,84.71
2023-02-01T22:44:09.983Z,84.69
2023-02-01T22:46:38.364Z,84.62
2023-02-01T22:49:07.153Z,85.05
2023-02-01T22:51:36.551Z,85.17
2023-02-01T22:54:05.039Z,85.04
2023-02-01T22:56:35.520Z,84.73
2023-02-01T22:59:07.971Z,84.82
2023-02-01T23:01:36.328Z,85.00
2023-02-01T23:04:06.231Z,84.90
2023-02-01T23:06:35.543Z,85.20
2023-02-01T23:09:14.769Z,84.79
2023-02-01T23:11:43.663Z,84.79
2023-02-01T23:14:12.592Z,84.92
2023-02-01T23:16:41.670Z,84.72
2023-02-01T23:19:10.033Z,84.71
2023-02-01T23:21:39.541Z,84.37
2023-02-01T23:24:10.225Z,84.43
2023-02-01T23:26:39.194Z,84.46
2023-02-01T23:29:07.872Z,84.15
2023-02-01T23:31:36.501Z,84.30
2023-02-01T23:34:04.947Z,84.05
2023-02-01T23:36:35.670Z,83.93
2023-02-01T23:39:04.369Z,83.97
2023-02-01T23:41:33.970Z,83.75
2023-02-01T23:44:02.555Z,83.74
2023-02-01T23:46:35.717Z,83.94
2023-02-01T23:49:05.803Z,83.71
2023-02-01T23:51:34.462Z,83.56
2023-02-01T23:54:03.050Z,83.77
2023-02-01T23:56:42.096Z,83.95
2023-02-01T23:59:21.731Z,83.94
